Time;durP1;ratioP1;P1;durP2;ratioP2;P2;SDS_P1;SDS_P2;PMS_P1;PMS_P2;Temp;Humidity;BMP_temperature;BMP_pressure;BME280_temperature;BME280_humidity;BME280_pressure;Samples;Min_cycle;Max_cycle;Signal;HPM_P1;HPM_P2
2022/01/14 00:00:05;;;;;;;;;;;-3.00;99.90;;;;;;2098938;28;19948;-72
2022/01/14 00:01:06;;;;;;;;;;;-3.10;99.90;;;;;;2090464;28;20004;-72
2022/01/14 00:02:06;;;;;;;;;;;-3.20;99.90;;;;;;2090470;28;20324;-72
2022/01/14 00:03:07;;;;;;;;;;;-3.20;99.90;;;;;;2091148;28;19916;-72
2022/01/14 00:04:08;;;;;;;;;;;-3.20;99.90;;;;;;2091099;28;19913;-72
2022/01/14 00:05:08;;;;;;;;;;;-3.20;99.90;;;;;;2091092;28;19908;-72
2022/01/14 00:06:10;;;;;;;;;;;-3.20;99.90;;;;;;2090377;28;20368;-72
2022/01/14 00:07:11;;;;;;;;;;;-3.20;99.90;;;;;;2082210;28;19909;-72
2022/01/14 00:08:12;;;;;;;;;;;-3.20;99.90;;;;;;2090477;28;19917;-72
2022/01/14 00:09:14;;;;;;;;;;;-3.30;99.90;;;;;;2090558;28;19905;-72
2022/01/14 00:10:14;;;;;;;;;;;-3.30;99.90;;;;;;2082370;28;20307;-72
2022/01/14 00:11:17;;;;;;;;;;;-3.30;99.90;;;;;;2090494;28;19915;-72
2022/01/14 00:12:24;;;;;;;;;;;-3.30;99.90;;;;;;2090973;28;19905;-72
2022/01/14 00:13:51;;;;;;;;;;;-3.30;99.90;;;;;;2091051;28;19909;-72
2022/01/14 00:15:11;;;;;;;;;;;-3.30;99.90;;;;;;2098395;28;19916;-72
2022/01/14 00:16:12;;;;;;;;;;;-3.30;99.90;;;;;;2096437;28;20384;-70
2022/01/14 00:17:14;;;;;;;;;;;-3.40;99.90;;;;;;2090445;28;19942;-72
2022/01/14 00:18:14;;;;;;;;;;;-3.40;99.90;;;;;;2082264;28;19910;-72
2022/01/14 00:19:16;;;;;;;;;;;-3.40;99.90;;;;;;2089903;28;19905;-72
2022/01/14 00:20:18;;;;;;;;;;;-3.40;99.90;;;;;;2090305;28;19905;-72
2022/01/14 00:21:19;;;;;;;;;;;-3.40;99.90;;;;;;2090290;28;19912;-72
2022/01/14 00:22:20;;;;;;;;;;;-3.40;99.90;;;;;;2091077;28;19916;-72
2022/01/14 00:23:27;;;;;;;;;;;-3.40;99.90;;;;;;2090851;28;20390;-73
2022/01/14 00:31:37;;;;;;;;;;;-3.40;99.90;;;;;;2090341;28;19911;-72
2022/01/14 00:32:38;;;;;;;;;;;-3.60;99.90;;;;;;2090803;28;19905;-72
2022/01/14 00:33:38;;;;;;;;;;;-3.50;99.90;;;;;;2090772;28;19995;-72
2022/01/14 00:34:39;;;;;;;;;;;-3.60;99.90;;;;;;2090906;28;20371;-72
2022/01/14 00:35:41;;;;;;;;;;;-3.50;99.90;;;;;;2098297;28;19920;-72
2022/01/14 00:36:41;;;;;;;;;;;-3.50;99.90;;;;;;2090393;28;19905;-72
2022/01/14 00:37:42;;;;;;;;;;;-3.50;99.90;;;;;;2098470;28;19905;-73
2022/01/14 00:38:42;;;;;;;;;;;-3.50;99.90;;;;;;2098526;28;20306;-72
2022/01/14 00:39:43;;;;;;;;;;;-3.40;99.90;;;;;;2090183;28;19909;-72
2022/01/14 00:40:44;;;;;;;;;;;-3.40;99.90;;;;;;2090359;28;19959;-72
2022/01/14 00:41:45;;;;;;;;;;;-3.50;99.90;;;;;;2081873;28;19906;-72
2022/01/14 00:42:46;;;;;;;;;;;-3.50;99.90;;;;;;2098438;28;20402;-72
2022/01/14 00:43:47;;;;;;;;;;;-3.40;99.90;;;;;;2098600;28;19923;-72
2022/01/14 00:44:48;;;;;;;;;;;-3.40;99.90;;;;;;2098281;28;20249;-72
2022/01/14 00:45:51;;;;;;;;;;;-3.40;99.90;;;;;;2098394;28;19913;-72
2022/01/14 00:46:52;;;;;;;;;;;-3.40;99.90;;;;;;2089886;28;19913;-72
2022/01/14 00:47:52;;;;;;;;;;;-3.50;99.90;;;;;;2106865;28;19919;-72
2022/01/14 00:48:53;;;;;;;;;;;-3.50;99.90;;;;;;2106745;28;19912;-72
2022/01/14 00:49:53;;;;;;;;;;;-3.50;99.90;;;;;;2090085;28;19995;-72
2022/01/14 00:50:54;;;;;;;;;;;-3.60;99.90;;;;;;2090297;28;19987;-72
2022/01/14 00:51:55;;;;;;;;;;;-3.60;99.90;;;;;;2106982;28;19961;-72
2022/01/14 00:52:56;;;;;;;;;;;-3.60;99.90;;;;;;2106698;28;20310;-72
2022/01/14 00:53:56;;;;;;;;;;;-3.60;99.90;;;;;;2090581;28;19913;-72
2022/01/14 00:54:57;;;;;;;;;;;-3.60;99.90;;;;;;2106535;28;19912;-72
2022/01/14 00:56:20;;;;;;;;;;;-3.50;99.90;;;;;;2098310;28;19938;-74
2022/01/14 00:59:14;;;;;;;;;;;-3.40;99.90;;;;;;2084799;28;20003;-72
2022/01/14 01:00:07;;;;;;;;;;;-3.30;99.90;;;;;;2090594;28;19946;-72
2022/01/14 01:01:07;;;;;;;;;;;-3.30;99.90;;;;;;2106545;28;20450;-72
2022/01/14 01:02:08;;;;;;;;;;;-3.30;99.90;;;;;;2106781;28;19986;-72
2022/01/14 01:03:08;;;;;;;;;;;-3.30;99.90;;;;;;2089859;28;20342;-72
2022/01/14 01:04:13;;;;;;;;;;;-3.10;99.90;;;;;;2090120;28;19913;-72
2022/01/14 01:05:14;;;;;;;;;;;-3.00;99.90;;;;;;2090596;28;19913;-72
2022/01/14 01:06:15;;;;;;;;;;;-3.00;99.90;;;;;;2091009;28;20460;-72
2022/01/14 01:07:17;;;;;;;;;;;-3.00;99.90;;;;;;2107277;28;19970;-72
2022/01/14 01:08:22;;;;;;;;;;;-3.10;99.90;;;;;;2107464;28;19904;-72
2022/01/14 01:09:25;;;;;;;;;;;-3.10;99.90;;;;;;2107230;28;19904;-72
2022/01/14 01:10:25;;;;;;;;;;;-3.10;99.90;;;;;;2097653;28;19971;-72
2022/01/14 01:11:33;;;;;;;;;;;-3.10;99.90;;;;;;2090283;28;20314;-72
2022/01/14 01:12:56;;;;;;;;;;;-3.20;99.90;;;;;;2106590;28;19943;-72
2022/01/14 01:14:14;;;;;;;;;;;-3.20;99.90;;;;;;2099129;28;19912;-72
2022/01/14 01:15:16;;;;;;;;;;;-3.20;99.90;;;;;;2090484;28;19919;-72
2022/01/14 01:16:17;;;;;;;;;;;-3.20;99.90;;;;;;2090814;28;19905;-72
2022/01/14 01:17:18;;;;;;;;;;;-3.30;99.90;;;;;;2090518;28;20004;-72
2022/01/14 01:18:19;;;;;;;;;;;-3.30;99.90;;;;;;2090381;28;19905;-72
2022/01/14 01:19:19;;;;;;;;;;;-3.30;99.90;;;;;;2106516;28;20466;-72
2022/01/14 01:20:21;;;;;;;;;;;-3.30;99.90;;;;;;2106404;28;19908;-72
2022/01/14 01:21:21;;;;;;;;;;;-3.30;99.90;;;;;;2090541;28;19991;-72
2022/01/14 01:22:22;;;;;;;;;;;-3.40;99.90;;;;;;2090527;28;19905;-72
2022/01/14 01:23:23;;;;;;;;;;;-3.40;99.90;;;;;;2090413;28;19912;-71
2022/01/14 01:24:23;;;;;;;;;;;-3.40;99.90;;;;;;2089933;28;20381;-72
2022/01/14 01:25:27;;;;;;;;;;;-3.40;99.90;;;;;;2089614;28;19952;-72
2022/01/14 01:26:33;;;;;;;;;;;-3.40;99.90;;;;;;2089896;28;19911;-72
2022/01/14 01:27:38;;;;;;;;;;;-3.50;99.90;;;;;;2082810;28;19905;-72
2022/01/14 01:28:54;;;;;;;;;;;-3.50;99.90;;;;;;2099561;28;19904;-72
2022/01/14 01:30:11;;;;;;;;;;;-3.50;99.90;;;;;;2101021;28;19912;-72
2022/01/14 01:31:35;;;;;;;;;;;-3.60;99.90;;;;;;2090321;28;19975;-71
2022/01/14 01:32:32;;;;;;;;;;;-3.60;99.90;;;;;;2090196;28;19951;-72
2022/01/14 01:33:33;;;;;;;;;;;-3.60;99.90;;;;;;2089831;28;19956;-72
2022/01/14 01:34:34;;;;;;;;;;;-3.70;99.90;;;;;;2089717;28;19912;-72
2022/01/14 01:35:34;;;;;;;;;;;-3.70;99.90;;;;;;2089710;28;20359;-72
2022/01/14 01:36:36;;;;;;;;;;;-3.70;99.90;;;;;;2089557;28;19948;-72
2022/01/14 01:37:36;;;;;;;;;;;-3.60;99.90;;;;;;2097932;28;19912;-72
2022/01/14 01:38:37;;;;;;;;;;;-3.60;99.90;;;;;;2090436;28;19913;-71
2022/01/14 01:39:38;;;;;;;;;;;-3.60;99.90;;;;;;2090518;28;19913;-72
2022/01/14 01:40:38;;;;;;;;;;;-3.60;99.90;;;;;;2090223;28;19952;-72
2022/01/14 01:41:42;;;;;;;;;;;-3.60;99.90;;;;;;2089745;28;19913;-72
2022/01/14 01:42:44;;;;;;;;;;;-3.60;99.90;;;;;;2081786;28;19967;-72
2022/01/14 01:43:50;;;;;;;;;;;-3.60;99.90;;;;;;2098289;28;19905;-72
2022/01/14 01:44:51;;;;;;;;;;;-3.60;99.90;;;;;;2097038;28;19959;-72
2022/01/14 01:45:54;;;;;;;;;;;-3.60;99.90;;;;;;2089543;28;19905;-72
2022/01/14 01:46:55;;;;;;;;;;;-3.70;99.90;;;;;;2089580;28;20369;-72
2022/01/14 01:47:56;;;;;;;;;;;-3.70;99.90;;;;;;2089584;28;19928;-72
2022/01/14 01:48:57;;;;;;;;;;;-3.70;99.90;;;;;;2090189;28;20376;-72
2022/01/14 01:49:57;;;;;;;;;;;-3.60;99.90;;;;;;2090213;28;19912;-72
2022/01/14 01:50:58;;;;;;;;;;;-3.60;99.90;;;;;;2089471;28;20304;-72
2022/01/14 01:51:59;;;;;;;;;;;-3.60;99.90;;;;;;2089540;28;19912;-72
2022/01/14 01:53:00;;;;;;;;;;;-3.60;99.90;;;;;;2090127;28;19905;-72
2022/01/14 01:54:01;;;;;;;;;;;-3.60;99.90;;;;;;2090277;28;19994;-72
2022/01/14 01:55:03;;;;;;;;;;;-3.60;99.90;;;;;;2089321;28;19913;-71
2022/01/14 01:56:04;;;;;;;;;;;-3.60;99.90;;;;;;2081367;28;20008;-71
2022/01/14 01:57:04;;;;;;;;;;;-3.60;99.90;;;;;;2089464;28;19913;-73
2022/01/14 01:58:05;;;;;;;;;;;-3.60;99.90;;;;;;2106165;28;19916;-72
2022/01/14 01:59:05;;;;;;;;;;;-3.50;99.90;;;;;;2106196;28;19988;-72
2022/01/14 02:00:08;;;;;;;;;;;-3.50;99.90;;;;;;2090127;28;20299;-72
2022/01/14 02:01:08;;;;;;;;;;;-3.50;99.90;;;;;;2089298;28;19913;-72
2022/01/14 02:02:09;;;;;;;;;;;-3.50;99.90;;;;;;2089538;28;19936;-72
2022/01/14 02:03:12;;;;;;;;;;;-3.50;99.90;;;;;;2090011;28;19912;-72
2022/01/14 02:04:13;;;;;;;;;;;-3.50;99.90;;;;;;2089636;28;19912;-72
2022/01/14 02:05:13;;;;;;;;;;;-3.50;99.90;;;;;;2089508;28;19908;-72
2022/01/14 02:06:14;;;;;;;;;;;-3.50;99.90;;;;;;2090131;28;19912;-71
2022/01/14 02:07:15;;;;;;;;;;;-3.50;99.90;;;;;;2089898;28;19963;-71
2022/01/14 02:08:16;;;;;;;;;;;-3.50;99.90;;;;;;2090164;28;19939;-70
2022/01/14 02:09:16;;;;;;;;;;;-3.50;99.90;;;;;;2089734;28;20368;-70
2022/01/14 02:10:17;;;;;;;;;;;-3.50;99.90;;;;;;2088682;28;19917;-71
2022/01/14 02:11:18;;;;;;;;;;;-3.40;99.90;;;;;;2089457;28;19931;-70
2022/01/14 02:12:19;;;;;;;;;;;-3.40;99.90;;;;;;2090036;28;19936;-70
2022/01/14 02:13:20;;;;;;;;;;;-3.40;99.90;;;;;;2089306;28;19916;-70
2022/01/14 02:17:16;;;;;;;;;;;-3.40;99.90;;;;;;2089679;28;19950;-70
2022/01/14 02:22:55;;;;;;;;;;;-3.40;99.90;;;;;;2106086;28;19991;-70
2022/01/14 02:24:31;;;;;;;;;;;-3.30;99.90;;;;;;2094685;28;19916;-71
2022/01/14 02:25:30;;;;;;;;;;;-3.40;99.90;;;;;;2089574;28;19913;-70
2022/01/14 02:26:31;;;;;;;;;;;-3.40;99.90;;;;;;2089961;28;19996;-72
2022/01/14 02:27:31;;;;;;;;;;;-3.30;99.90;;;;;;2089928;28;19912;-71
2022/01/14 02:28:32;;;;;;;;;;;-3.40;99.90;;;;;;2105848;28;20477;-71
2022/01/14 02:29:33;;;;;;;;;;;-3.40;99.90;;;;;;2097736;28;19912;-71
2022/01/14 02:30:36;;;;;;;;;;;-3.40;99.90;;;;;;2089295;28;19920;-71
2022/01/14 02:31:36;;;;;;;;;;;-3.40;99.90;;;;;;2089374;28;20421;-71
2022/01/14 02:32:39;;;;;;;;;;;-3.40;99.90;;;;;;2089153;28;19905;-71
2022/01/14 02:33:39;;;;;;;;;;;-3.40;99.90;;;;;;2089317;28;19913;-71
2022/01/14 02:34:40;;;;;;;;;;;-3.40;99.90;;;;;;2089270;28;19996;-71
2022/01/14 02:35:44;;;;;;;;;;;-3.50;99.90;;;;;;2089899;28;20376;-71
2022/01/14 02:36:46;;;;;;;;;;;-3.60;99.90;;;;;;2089190;28;20368;-71
2022/01/14 02:37:46;;;;;;;;;;;-3.60;99.90;;;;;;2081404;28;19920;-71
2022/01/14 02:38:47;;;;;;;;;;;-3.60;99.90;;;;;;2089304;28;20586;-71
2022/01/14 02:39:48;;;;;;;;;;;-3.60;99.90;;;;;;2089445;28;19920;-71
2022/01/14 02:40:48;;;;;;;;;;;-3.60;99.90;;;;;;2097598;28;19912;-71
2022/01/14 02:41:50;;;;;;;;;;;-3.60;99.90;;;;;;2106129;28;20009;-72
2022/01/14 02:42:51;;;;;;;;;;;-3.50;99.90;;;;;;2105907;28;19916;-71
2022/01/14 02:43:52;;;;;;;;;;;-3.50;99.90;;;;;;2097637;28;19912;-73
2022/01/14 02:45:00;;;;;;;;;;;-3.50;99.90;;;;;;2097478;28;20006;-71
2022/01/14 02:46:00;;;;;;;;;;;-3.50;99.90;;;;;;2096580;28;20345;-71
2022/01/14 02:47:05;;;;;;;;;;;-3.50;99.90;;;;;;2089192;28;19975;-71
2022/01/14 02:48:06;;;;;;;;;;;-3.50;99.90;;;;;;2089918;28;19905;-71
2022/01/14 02:49:07;;;;;;;;;;;-3.40;99.90;;;;;;2089886;28;20269;-71
2022/01/14 02:50:09;;;;;;;;;;;-3.40;99.90;;;;;;2089251;28;20411;-71
2022/01/14 02:51:13;;;;;;;;;;;-3.40;99.90;;;;;;2081404;28;19906;-71
2022/01/14 02:52:13;;;;;;;;;;;-3.40;99.90;;;;;;2089360;28;19936;-72
2022/01/14 02:53:26;;;;;;;;;;;-3.40;99.90;;;;;;2105787;28;19934;-71
2022/01/14 02:54:32;;;;;;;;;;;-3.40;99.90;;;;;;2102852;28;19905;-71
2022/01/14 02:55:34;;;;;;;;;;;-3.30;99.90;;;;;;2089807;28;19905;-70
2022/01/14 02:56:35;;;;;;;;;;;-3.30;99.90;;;;;;2089778;28;19905;-71
2022/01/14 02:57:36;;;;;;;;;;;-3.40;99.90;;;;;;2105647;28;19946;-71
2022/01/14 02:58:38;;;;;;;;;;;-3.40;99.90;;;;;;2097496;28;19982;-71
2022/01/14 02:59:39;;;;;;;;;;;-3.40;99.90;;;;;;2089225;28;19916;-71
2022/01/14 03:00:40;;;;;;;;;;;-3.40;99.90;;;;;;2105797;28;19985;-71
2022/01/14 03:01:40;;;;;;;;;;;-3.40;99.90;;;;;;2097450;28;20458;-71
2022/01/14 03:02:43;;;;;;;;;;;-3.50;99.90;;;;;;2089198;28;20055;-71
2022/01/14 03:03:45;;;;;;;;;;;-3.60;99.90;;;;;;2105941;28;19972;-71
2022/01/14 03:04:46;;;;;;;;;;;-3.60;99.90;;;;;;2097319;28;19913;-71
2022/01/14 03:05:46;;;;;;;;;;;-3.60;99.90;;;;;;2080993;28;20000;-71
2022/01/14 03:06:48;;;;;;;;;;;-3.60;99.90;;;;;;2089247;28;19913;-71
2022/01/14 03:07:49;;;;;;;;;;;-3.50;99.90;;;;;;2089164;28;19912;-71
2022/01/14 03:08:49;;;;;;;;;;;-3.50;99.90;;;;;;2089813;28;19947;-71
2022/01/14 03:09:50;;;;;;;;;;;-3.50;99.90;;;;;;2098313;28;19912;-71
2022/01/14 03:10:59;;;;;;;;;;;-3.50;99.90;;;;;;2090424;28;20315;-71
2022/01/14 03:12:01;;;;;;;;;;;-3.50;99.90;;;;;;2105962;28;19919;-71
2022/01/14 03:13:02;;;;;;;;;;;-3.50;99.90;;;;;;2105597;28;19912;-71
2022/01/14 03:14:03;;;;;;;;;;;-3.50;99.90;;;;;;2089183;28;19983;-71
2022/01/14 03:15:04;;;;;;;;;;;-3.40;99.90;;;;;;2089246;28;19905;-72
2022/01/14 03:16:05;;;;;;;;;;;-3.40;99.90;;;;;;2097346;28;19995;-71
2022/01/14 03:17:06;;;;;;;;;;;-3.50;99.90;;;;;;2105834;28;19904;-70
2022/01/14 03:18:07;;;;;;;;;;;-3.40;99.90;;;;;;2097614;28;19962;-71
2022/01/14 03:19:16;;;;;;;;;;;-3.50;99.90;;;;;;2089391;28;20571;-71
2022/01/14 03:21:42;;;;;;;;;;;-3.50;99.90;;;;;;2090458;28;20268;-70
2022/01/14 03:22:52;;;;;;;;;;;-3.50;99.90;;;;;;2107532;28;19912;-71
2022/01/14 03:24:03;;;;;;;;;;;-3.50;99.90;;;;;;2103333;28;20358;-71
2022/01/14 03:26:26;;;;;;;;;;;-3.60;99.90;;;;;;2099187;28;19956;-71
2022/01/14 03:27:26;;;;;;;;;;;-3.50;99.90;;;;;;2091029;28;19913;-71
2022/01/14 03:28:27;;;;;;;;;;;-3.50;99.90;;;;;;2090191;28;19912;-71
2022/01/14 03:29:27;;;;;;;;;;;-3.40;99.90;;;;;;2091374;28;19963;-71
2022/01/14 03:30:28;;;;;;;;;;;-3.30;99.90;;;;;;2091152;28;19923;-71
2022/01/14 03:31:29;;;;;;;;;;;-3.30;99.90;;;;;;2091334;28;19920;-71
2022/01/14 03:32:29;;;;;;;;;;;-3.20;99.90;;;;;;2091262;28;19913;-71
2022/01/14 03:33:30;;;;;;;;;;;-3.00;99.90;;;;;;2091302;28;19913;-71
2022/01/14 03:34:31;;;;;;;;;;;-2.90;99.90;;;;;;2091183;28;19913;-71
2022/01/14 03:35:31;;;;;;;;;;;-2.90;99.90;;;;;;2090660;28;19964;-71
2022/01/14 03:36:32;;;;;;;;;;;-2.80;99.90;;;;;;2090578;28;19920;-71
2022/01/14 03:37:33;;;;;;;;;;;-2.90;99.90;;;;;;2090546;28;19913;-71
2022/01/14 03:38:34;;;;;;;;;;;-2.80;99.90;;;;;;2099025;28;20045;-71
2022/01/14 03:39:35;;;;;;;;;;;-2.80;99.90;;;;;;2098968;28;19912;-73
2022/01/14 03:40:35;;;;;;;;;;;-2.80;99.90;;;;;;2082287;28;20013;-71
2022/01/14 03:41:36;;;;;;;;;;;-2.90;99.90;;;;;;2090442;28;20396;-71
2022/01/14 03:42:37;;;;;;;;;;;-3.00;99.90;;;;;;2098936;28;19962;-71
2022/01/14 03:43:40;;;;;;;;;;;-3.00;99.90;;;;;;2091186;28;19912;-71
2022/01/14 03:44:40;;;;;;;;;;;-3.00;99.90;;;;;;2091075;28;19925;-71
2022/01/14 03:45:41;;;;;;;;;;;-3.00;99.90;;;;;;2091228;28;19919;-71
2022/01/14 03:46:42;;;;;;;;;;;-3.10;99.90;;;;;;2090561;28;19952;-71
2022/01/14 03:47:42;;;;;;;;;;;-3.10;99.90;;;;;;2082342;28;20427;-71
2022/01/14 03:48:43;;;;;;;;;;;-3.20;99.90;;;;;;2090829;28;19913;-71
2022/01/14 03:49:43;;;;;;;;;;;-3.20;99.90;;;;;;2091251;28;19905;-71
2022/01/14 03:50:44;;;;;;;;;;;-3.20;99.90;;;;;;2091078;28;20338;-71
2022/01/14 03:51:45;;;;;;;;;;;-3.20;99.90;;;;;;2091131;28;19913;-71
2022/01/14 03:52:46;;;;;;;;;;;-3.10;99.90;;;;;;2091102;28;19966;-71
2022/01/14 03:53:47;;;;;;;;;;;-3.10;99.90;;;;;;2090994;28;19919;-71
2022/01/14 03:54:49;;;;;;;;;;;-3.10;99.90;;;;;;2091124;28;19912;-71
2022/01/14 03:55:49;;;;;;;;;;;-3.10;99.90;;;;;;2090736;28;19955;-71
2022/01/14 03:56:50;;;;;;;;;;;-3.10;99.90;;;;;;2090503;28;19916;-71
2022/01/14 03:57:51;;;;;;;;;;;-3.20;99.90;;;;;;2090432;28;19913;-71
2022/01/14 03:58:52;;;;;;;;;;;-3.30;99.90;;;;;;2082162;28;20047;-71
2022/01/14 03:59:53;;;;;;;;;;;-3.30;99.90;;;;;;2090519;28;19944;-71
2022/01/14 04:00:53;;;;;;;;;;;-3.40;99.90;;;;;;2082193;28;20278;-71
2022/01/14 04:01:54;;;;;;;;;;;-3.40;99.90;;;;;;2090452;28;19905;-71
2022/01/14 04:02:55;;;;;;;;;;;-3.40;99.90;;;;;;2091076;28;19905;-71
2022/01/14 04:03:55;;;;;;;;;;;-3.40;99.90;;;;;;2091197;28;20388;-71
2022/01/14 04:04:56;;;;;;;;;;;-3.50;99.90;;;;;;2098481;28;19905;-71
2022/01/14 04:05:56;;;;;;;;;;;-3.40;99.90;;;;;;2098973;28;19944;-71
2022/01/14 04:06:57;;;;;;;;;;;-3.50;99.90;;;;;;2091008;28;19905;-71
2022/01/14 04:07:58;;;;;;;;;;;-3.50;99.90;;;;;;2091080;28;19909;-71
2022/01/14 04:08:59;;;;;;;;;;;-3.50;99.90;;;;;;2091079;28;19968;-71
2022/01/14 04:09:59;;;;;;;;;;;-3.50;99.90;;;;;;2106756;28;20383;-71
2022/01/14 04:11:02;;;;;;;;;;;-3.40;99.90;;;;;;2107130;28;19904;-71
2022/01/14 04:12:04;;;;;;;;;;;-3.40;99.90;;;;;;2090357;28;20367;-71
2022/01/14 04:13:13;;;;;;;;;;;-3.40;99.90;;;;;;2090338;28;20402;-71
2022/01/14 04:15:36;;;;;;;;;;;-3.40;99.90;;;;;;2090899;28;20367;-71
2022/01/14 04:15:45;;;;;;;;;;;-3.30;99.90;;;;;;2091061;28;19916;-71
2022/01/14 04:16:46;;;;;;;;;;;-3.30;99.90;;;;;;2090314;28;19935;-71
2022/01/14 04:17:46;;;;;;;;;;;-3.30;99.90;;;;;;2090397;28;19913;-71
2022/01/14 04:18:48;;;;;;;;;;;-3.30;99.90;;;;;;2090929;28;20011;-71
2022/01/14 04:19:49;;;;;;;;;;;-3.30;99.90;;;;;;2090423;28;19913;-71
2022/01/14 04:20:50;;;;;;;;;;;-3.30;99.90;;;;;;2098464;28;19919;-71
2022/01/14 04:21:51;;;;;;;;;;;-3.30;99.90;;;;;;2098534;28;21060;-71
2022/01/14 04:22:51;;;;;;;;;;;-3.40;99.90;;;;;;2090305;28;19931;-70
2022/01/14 04:23:52;;;;;;;;;;;-3.40;99.90;;;;;;2098673;28;20327;-71
2022/01/14 04:24:52;;;;;;;;;;;-3.50;99.90;;;;;;2098375;28;20007;-71
2022/01/14 04:25:54;;;;;;;;;;;-3.50;99.90;;;;;;2090897;28;19905;-71
2022/01/14 04:26:55;;;;;;;;;;;-3.50;99.90;;;;;;2090835;28;19962;-71
2022/01/14 04:27:55;;;;;;;;;;;-3.50;99.90;;;;;;2089955;28;20453;-71
2022/01/14 04:28:56;;;;;;;;;;;-3.50;99.90;;;;;;2090154;28;19912;-72
2022/01/14 04:29:56;;;;;;;;;;;-3.50;99.90;;;;;;2090381;28;20276;-71
2022/01/14 04:30:58;;;;;;;;;;;-3.50;99.90;;;;;;2090016;28;19966;-70
2022/01/14 04:31:59;;;;;;;;;;;-3.50;99.90;;;;;;2090231;28;19912;-71
2022/01/14 04:33:00;;;;;;;;;;;-3.60;99.90;;;;;;2089232;28;20406;-71
2022/01/14 04:34:01;;;;;;;;;;;-3.50;99.90;;;;;;2090842;28;19952;-71
2022/01/14 04:35:01;;;;;;;;;;;-3.50;99.90;;;;;;2106540;28;20345;-71
2022/01/14 04:36:03;;;;;;;;;;;-3.50;99.90;;;;;;2098264;28;19916;-71
2022/01/14 04:37:04;;;;;;;;;;;-3.50;99.90;;;;;;2089996;28;19987;-71
2022/01/14 04:38:04;;;;;;;;;;;-3.50;99.90;;;;;;2098599;28;19909;-71
2022/01/14 04:39:05;;;;;;;;;;;-3.50;99.90;;;;;;2090177;28;19904;-71
2022/01/14 04:40:06;;;;;;;;;;;-3.50;99.90;;;;;;2090173;28;20302;-71
2022/01/14 04:41:08;;;;;;;;;;;-3.40;99.90;;;;;;2090617;28;19917;-71
2022/01/14 04:42:09;;;;;;;;;;;-3.40;99.90;;;;;;2090894;28;19928;-71
2022/01/14 04:43:11;;;;;;;;;;;-3.40;99.90;;;;;;2090783;28;19944;-71
2022/01/14 04:44:12;;;;;;;;;;;-3.40;99.90;;;;;;2090696;28;20345;-71
2022/01/14 04:45:27;;;;;;;;;;;-3.40;99.90;;;;;;2106622;28;19998;-71
2022/01/14 04:47:43;;;;;;;;;;;-3.50;99.90;;;;;;2083127;28;20008;-71
2022/01/14 04:48:44;;;;;;;;;;;-3.50;99.90;;;;;;2090297;28;19959;-70
2022/01/14 04:49:45;;;;;;;;;;;-3.50;99.90;;;;;;2090598;28;19924;-70
2022/01/14 04:50:45;;;;;;;;;;;-3.50;99.90;;;;;;2090469;28;19932;-70
2022/01/14 04:51:46;;;;;;;;;;;-3.50;99.90;;;;;;2106463;28;19938;-70
2022/01/14 04:52:48;;;;;;;;;;;-3.50;99.90;;;;;;2106505;28;19923;-70
2022/01/14 04:53:48;;;;;;;;;;;-3.50;99.90;;;;;;2089862;28;19947;-70
2022/01/14 04:54:49;;;;;;;;;;;-3.60;99.90;;;;;;2089822;28;19916;-70
2022/01/14 04:55:50;;;;;;;;;;;-3.60;99.90;;;;;;2089872;28;19948;-71
2022/01/14 04:56:51;;;;;;;;;;;-3.60;99.90;;;;;;2089777;28;19912;-70
2022/01/14 04:57:52;;;;;;;;;;;-3.60;99.90;;;;;;2098006;28;19905;-70
2022/01/14 04:58:53;;;;;;;;;;;-3.50;99.90;;;;;;2106218;28;20391;-70
2022/01/14 04:59:54;;;;;;;;;;;-3.50;99.90;;;;;;2098049;28;19905;-70
2022/01/14 05:00:55;;;;;;;;;;;-3.50;99.90;;;;;;2090484;28;19912;-70
2022/01/14 05:01:57;;;;;;;;;;;-3.40;99.90;;;;;;2106411;28;19904;-70
2022/01/14 05:02:58;;;;;;;;;;;-3.40;99.90;;;;;;2097768;28;20341;-70
2022/01/14 05:03:59;;;;;;;;;;;-3.40;99.90;;;;;;2081547;28;19905;-70
2022/01/14 05:05:00;;;;;;;;;;;-3.40;99.90;;;;;;2089577;28;20367;-71
2022/01/14 05:06:02;;;;;;;;;;;-3.40;99.90;;;;;;2097988;28;19911;-71
2022/01/14 05:07:03;;;;;;;;;;;-3.40;99.90;;;;;;2089590;28;19905;-70
2022/01/14 05:08:09;;;;;;;;;;;-3.40;99.90;;;;;;2089837;28;19905;-70
2022/01/14 05:09:19;;;;;;;;;;;-3.40;99.90;;;;;;2106226;28;19904;-70
2022/01/14 05:10:36;;;;;;;;;;;-3.40;99.90;;;;;;2103398;28;19988;-70
2022/01/14 05:11:40;;;;;;;;;;;-3.30;99.90;;;;;;2098165;28;19913;-70
2022/01/14 05:12:41;;;;;;;;;;;-3.30;99.90;;;;;;2097733;28;19987;-70
2022/01/14 05:13:41;;;;;;;;;;;-3.30;99.90;;;;;;2106510;28;19942;-70
2022/01/14 05:14:42;;;;;;;;;;;-3.30;99.90;;;;;;2106069;28;20363;-70
2022/01/14 05:15:42;;;;;;;;;;;-3.20;99.90;;;;;;2090306;28;19912;-70
2022/01/14 05:16:43;;;;;;;;;;;-3.10;99.90;;;;;;2090190;28;20356;-71
2022/01/14 05:17:44;;;;;;;;;;;-3.10;99.90;;;;;;2090299;28;19920;-70
2022/01/14 05:18:45;;;;;;;;;;;-3.10;99.90;;;;;;2089581;28;19911;-70
2022/01/14 05:19:45;;;;;;;;;;;-3.20;99.90;;;;;;2089616;28;20415;-70
2022/01/14 05:20:46;;;;;;;;;;;-3.20;99.90;;;;;;2089529;28;19905;-70
2022/01/14 05:21:47;;;;;;;;;;;-3.20;99.90;;;;;;2089703;28;19935;-70
2022/01/14 05:22:47;;;;;;;;;;;-3.20;99.90;;;;;;2090211;28;19909;-70
2022/01/14 05:23:48;;;;;;;;;;;-3.20;99.90;;;;;;2090187;28;20403;-71
2022/01/14 05:24:48;;;;;;;;;;;-3.20;99.90;;;;;;2089914;28;20134;-71
2022/01/14 05:25:49;;;;;;;;;;;-3.20;99.90;;;;;;2090154;28;19920;-71
2022/01/14 05:26:50;;;;;;;;;;;-3.30;99.90;;;;;;2090123;28;19905;-71
2022/01/14 05:27:51;;;;;;;;;;;-3.20;99.90;;;;;;2090134;28;19913;-70
2022/01/14 05:28:52;;;;;;;;;;;-3.20;99.90;;;;;;2090185;28;19905;-71
2022/01/14 05:29:52;;;;;;;;;;;-3.20;99.90;;;;;;2090032;28;19909;-71
2022/01/14 05:30:53;;;;;;;;;;;-3.10;99.90;;;;;;2090060;28;20284;-71
2022/01/14 05:32:02;;;;;;;;;;;-3.20;99.90;;;;;;2106193;28;19954;-71
2022/01/14 05:33:03;;;;;;;;;;;-3.20;99.90;;;;;;2103960;28;19926;-71
2022/01/14 05:34:04;;;;;;;;;;;-3.20;99.90;;;;;;2090037;28;19905;-71
2022/01/14 05:35:04;;;;;;;;;;;-3.30;99.90;;;;;;2089196;28;19935;-71
2022/01/14 05:36:05;;;;;;;;;;;-3.30;99.90;;;;;;2089382;28;19972;-71
2022/01/14 05:37:07;;;;;;;;;;;-3.30;99.90;;;;;;2090071;28;19940;-71
2022/01/14 05:38:07;;;;;;;;;;;-3.40;99.90;;;;;;2089452;28;19909;-71
2022/01/14 05:39:09;;;;;;;;;;;-3.40;99.90;;;;;;2081313;28;20474;-71
2022/01/14 05:40:10;;;;;;;;;;;-3.40;99.90;;;;;;2089490;28;19909;-71
2022/01/14 05:41:11;;;;;;;;;;;-3.40;99.90;;;;;;2089380;28;20371;-71
2022/01/14 05:42:12;;;;;;;;;;;-3.30;99.90;;;;;;2089430;28;19909;-71
2022/01/14 05:43:12;;;;;;;;;;;-3.30;99.90;;;;;;2089502;28;19938;-71
2022/01/14 05:44:13;;;;;;;;;;;-3.20;99.90;;;;;;2089245;28;19913;-71
2022/01/14 05:45:15;;;;;;;;;;;-3.20;99.90;;;;;;2089948;28;19912;-71
2022/01/14 05:46:16;;;;;;;;;;;-3.20;99.90;;;;;;2089373;28;20348;-71
2022/01/14 05:47:17;;;;;;;;;;;-3.20;99.90;;;;;;2081117;28;19909;-71
2022/01/14 05:48:17;;;;;;;;;;;-3.10;99.90;;;;;;2089393;28;20276;-71
2022/01/14 05:49:18;;;;;;;;;;;-3.10;99.90;;;;;;2089544;28;19915;-71
2022/01/14 05:50:23;;;;;;;;;;;-3.10;99.90;;;;;;2097541;28;19993;-71
2022/01/14 05:51:23;;;;;;;;;;;-3.10;99.90;;;;;;2097187;28;19909;-70
2022/01/14 05:52:24;;;;;;;;;;;-3.20;99.90;;;;;;2089364;28;19912;-70
2022/01/14 05:53:24;;;;;;;;;;;-3.20;99.90;;;;;;2089960;28;20276;-70
2022/01/14 05:54:25;;;;;;;;;;;-3.30;99.90;;;;;;2089361;28;20439;-70
2022/01/14 05:55:25;;;;;;;;;;;-3.30;99.90;;;;;;2097619;28;19966;-70
2022/01/14 05:56:26;;;;;;;;;;;-3.30;99.90;;;;;;2105988;28;20290;-70
2022/01/14 05:57:27;;;;;;;;;;;-3.30;99.90;;;;;;2089870;28;19967;-70
2022/01/14 05:58:27;;;;;;;;;;;-3.20;99.90;;;;;;2089801;28;19909;-70
2022/01/14 05:59:28;;;;;;;;;;;-3.30;99.90;;;;;;2089229;28;19913;-70
2022/01/14 06:00:28;;;;;;;;;;;-3.30;99.90;;;;;;2089294;28;20296;-70
2022/01/14 06:01:30;;;;;;;;;;;-3.30;99.90;;;;;;2090079;28;19920;-70
2022/01/14 06:02:31;;;;;;;;;;;-3.30;99.90;;;;;;2089156;28;19915;-70
2022/01/14 06:03:31;;;;;;;;;;;-3.20;99.90;;;;;;2089369;28;20311;-70
2022/01/14 06:04:32;;;;;;;;;;;-3.20;99.90;;;;;;2089647;28;19909;-71
2022/01/14 06:05:33;;;;;;;;;;;-3.10;99.90;;;;;;2089950;28;19913;-70
2022/01/14 06:06:34;;;;;;;;;;;-3.10;99.90;;;;;;2089885;28;19948;-70
2022/01/14 06:07:34;;;;;;;;;;;-3.10;99.90;;;;;;2089817;28;19927;-70
2022/01/14 06:08:35;;;;;;;;;;;-3.20;99.90;;;;;;2089329;28;19940;-70
2022/01/14 06:09:36;;;;;;;;;;;-3.20;99.90;;;;;;2089287;28;19921;-70
2022/01/14 06:10:36;;;;;;;;;;;-3.10;99.90;;;;;;2089214;28;20331;-70
2022/01/14 06:11:37;;;;;;;;;;;-3.10;99.90;;;;;;2089389;28;19912;-70
2022/01/14 06:12:38;;;;;;;;;;;-3.10;99.90;;;;;;2089746;28;20284;-70
2022/01/14 06:13:38;;;;;;;;;;;-3.10;99.90;;;;;;2089787;28;20348;-70
2022/01/14 06:14:39;;;;;;;;;;;-3.10;99.90;;;;;;2089756;28;19913;-70
2022/01/14 06:15:39;;;;;;;;;;;-3.10;99.90;;;;;;2089175;28;19913;-71
2022/01/14 06:16:41;;;;;;;;;;;-3.10;99.90;;;;;;2089222;28;19913;-70
2022/01/14 06:17:42;;;;;;;;;;;-3.10;99.90;;;;;;2089168;28;19939;-70
2022/01/14 06:18:43;;;;;;;;;;;-3.10;99.90;;;;;;2089292;28;19948;-70
2022/01/14 06:19:43;;;;;;;;;;;-3.10;99.90;;;;;;2089857;28;20395;-70
2022/01/14 06:20:44;;;;;;;;;;;-3.20;99.90;;;;;;2089889;28;20336;-70